Time;durP1;ratioP1;P1;durP2;ratioP2;P2;SDS_P1;SDS_P2;PMS_P1;PMS_P2;Temp;Humidity;BMP_temperature;BMP_pressure;BME280_temperature;BME280_humidity;BME280_pressure;Samples;Min_cycle;Max_cycle;Signal;HPM_P1;HPM_P2
2022/05/05 00:00:28;;;;;;;9.30;2.80;;;;;;;10.48;65.92;101218.94;5984318;28;20039;-67
2022/05/05 00:03:24;;;;;;;8.90;2.80;;;;;;;10.56;65.81;101211.16;5981120;28;20027;-67
2022/05/05 00:06:19;;;;;;;6.80;2.92;;;;;;;10.58;65.62;101208.34;5980009;28;20035;-65
2022/05/05 00:09:15;;;;;;;5.70;2.33;;;;;;;10.43;66.43;101207.88;5987857;28;20158;-67
2022/05/05 00:15:25;;;;;;;9.13;3.05;;;;;;;10.00;68.21;101223.09;5985164;28;20464;-67
2022/05/05 00:18:20;;;;;;;6.95;2.35;;;;;;;10.00;68.84;101223.09;5977536;28;20031;-65
2022/05/05 00:21:15;;;;;;;10.02;3.28;;;;;;;9.83;69.27;101210.44;5983286;28;20046;-65
2022/05/05 00:24:12;;;;;;;12.43;3.17;;;;;;;9.64;70.01;101205.00;5987578;28;20483;-66
2022/05/05 00:27:07;;;;;;;9.68;2.95;;;;;;;9.47;71.02;101220.47;5980366;28;20042;-66
2022/05/05 00:30:03;;;;;;;9.35;3.30;;;;;;;9.36;72.32;101231.09;5990544;28;20441;-66
2022/05/05 00:32:58;;;;;;;8.40;3.78;;;;;;;9.20;73.08;101217.44;5987616;28;20023;-65
2022/05/05 00:35:54;;;;;;;7.87;2.90;;;;;;;9.24;73.63;101218.84;5979307;28;20046;-66
2022/05/05 00:38:49;;;;;;;8.00;3.17;;;;;;;9.35;73.45;101221.47;5978729;28;20031;-67
2022/05/05 00:41:46;;;;;;;5.90;3.07;;;;;;;9.32;73.63;101227.00;5988445;28;20046;-67
2022/05/05 00:44:41;;;;;;;8.65;3.30;;;;;;;9.06;73.52;101225.66;5980554;28;20106;-65
2022/05/05 00:47:37;;;;;;;7.90;3.53;;;;;;;9.01;73.88;101235.75;5979497;28;20526;-66
2022/05/05 00:50:33;;;;;;;10.40;3.50;;;;;;;8.84;74.34;101238.91;5979375;28;20046;-66
2022/05/05 00:53:29;;;;;;;8.13;3.17;;;;;;;8.75;74.39;101250.22;5980455;28;20283;-66
2022/05/05 00:56:25;;;;;;;8.13;3.30;;;;;;;8.65;74.54;101246.59;5983816;28;20082;-65
2022/05/05 00:59:20;;;;;;;6.47;3.13;;;;;;;8.65;74.28;101236.03;5978321;29;20447;-66
2022/05/05 01:02:16;;;;;;;5.45;2.85;;;;;;;8.53;73.65;101243.16;5982505;28;20083;-66
2022/05/05 01:05:12;;;;;;;6.85;3.22;;;;;;;8.38;75.22;101255.72;5984818;28;20565;-67
2022/05/05 01:08:08;;;;;;;10.75;3.63;;;;;;;8.52;75.27;101251.16;5979273;28;20031;-66
2022/05/05 01:11:04;;;;;;;10.65;3.88;;;;;;;8.37;75.97;101254.03;5971673;28;20042;-66
2022/05/05 01:13:59;;;;;;;9.83;4.07;;;;;;;8.35;76.49;101260.41;5979215;28;20035;-67
2022/05/05 01:16:55;;;;;;;8.48;3.20;;;;;;;8.29;76.49;101263.50;5970890;28;20027;-65
2022/05/05 01:19:50;;;;;;;8.38;3.85;;;;;;;8.44;76.02;101264.16;5978833;28;20050;-67
2022/05/05 01:22:46;;;;;;;8.10;3.50;;;;;;;8.36;75.89;101272.66;5979485;28;20478;-67
2022/05/05 01:28:57;;;;;;;8.77;3.80;;;;;;;8.18;76.83;101268.78;5982664;28;20038;-67
2022/05/05 01:31:52;;;;;;;6.75;3.30;;;;;;;7.94;77.06;101265.31;5975395;29;20118;-67
2022/05/05 01:34:47;;;;;;;8.10;4.18;;;;;;;7.85;76.47;101268.69;5982477;28;20086;-66
2022/05/05 01:37:45;;;;;;;12.17;3.33;;;;;;;7.80;76.64;101275.13;5983989;28;20426;-68
2022/05/05 01:40:41;;;;;;;10.02;3.78;;;;;;;7.68;77.51;101280.50;5982902;28;20031;-68
2022/05/05 01:43:38;;;;;;;10.25;4.32;;;;;;;7.50;77.98;101276.56;5984948;28;20043;-67
2022/05/05 01:46:33;;;;;;;11.15;3.58;;;;;;;7.42;78.22;101286.84;5983930;28;20058;-67
2022/05/05 01:49:28;;;;;;;17.67;3.60;;;;;;;7.28;78.44;101289.63;5983943;28;20039;-67
2022/05/05 01:52:23;;;;;;;7.97;3.60;;;;;;;7.06;79.14;101296.47;5983389;28;20033;-66
2022/05/05 01:55:22;;;;;;;11.10;3.83;;;;;;;6.88;80.37;101283.72;5992472;28;20043;-65
2022/05/05 01:58:18;;;;;;;8.23;3.60;;;;;;;6.79;80.87;101290.50;5976172;28;20329;-66
2022/05/05 02:01:13;;;;;;;9.77;4.03;;;;;;;6.66;80.11;101297.53;5985111;28;20039;-66
2022/05/05 02:04:08;;;;;;;8.60;3.57;;;;;;;6.51;80.23;101301.25;5982181;28;20395;-64
2022/05/05 02:07:03;;;;;;;7.37;3.53;;;;;;;6.37;81.64;101306.63;5983549;28;20529;-65
2022/05/05 02:10:01;;;;;;;10.97;3.70;;;;;;;6.29;81.34;101314.19;5977636;28;20032;-66
2022/05/05 02:12:58;;;;;;;8.52;4.00;;;;;;;6.20;81.83;101312.19;5979029;28;20483;-65
2022/05/05 02:15:53;;;;;;;12.10;4.13;;;;;;;6.18;82.34;101327.25;5992051;28;20058;-68
2022/05/05 02:18:49;;;;;;;12.53;4.80;;;;;;;6.12;83.01;101311.84;5981362;28;20031;-65
2022/05/05 02:21:44;;;;;;;8.80;3.97;;;;;;;6.30;82.30;101314.13;5987182;28;20549;-67
2022/05/05 02:24:40;;;;;;;10.03;4.03;;;;;;;6.09;82.06;101322.63;5983049;28;20071;-67
2022/05/05 02:27:49;;;;;;;14.18;3.92;;;;;;;5.88;83.21;101328.34;5983445;28;20338;-65
2022/05/05 02:30:44;;;;;;;7.68;3.67;;;;;;;5.84;83.27;101337.34;5982910;28;20387;-66
2022/05/05 02:33:39;;;;;;;8.25;4.22;;;;;;;5.56;84.36;101329.56;5992545;28;20042;-66
2022/05/05 02:39:49;;;;;;;10.73;4.78;;;;;;;5.43;84.21;101323.41;5981386;29;20047;-66
2022/05/05 02:42:45;;;;;;;7.43;3.93;;;;;;;5.41;84.09;101338.44;5983176;28;20415;-67
2022/05/05 02:45:40;;;;;;;9.07;4.20;;;;;;;5.28;85.44;101342.78;5983500;28;20434;-65
2022/05/05 02:48:36;;;;;;;8.90;4.53;;;;;;;5.35;84.46;101341.47;5983817;28;20121;-67
2022/05/05 02:51:31;;;;;;;7.43;4.25;;;;;;;5.52;85.05;101340.41;5987718;28;20053;-65
2022/05/05 02:57:41;;;;;;;;;;;;;;;5.23;85.25;101339.59;5979802;28;20031;-66
2022/05/05 03:00:36;;;;;;;11.20;4.70;;;;;;;5.05;85.21;101330.25;5981041;28;19910;-65
2022/05/05 03:03:31;;;;;;;10.27;4.43;;;;;;;4.97;85.64;101338.63;5982351;28;20047;-66
2022/05/05 03:06:26;;;;;;;15.67;4.67;;;;;;;4.93;85.85;101323.13;5987873;28;20487;-66
2022/05/05 03:09:22;;;;;;;13.03;5.07;;;;;;;4.92;86.32;101335.41;5982183;28;20070;-67
2022/05/05 03:12:17;;;;;;;10.00;4.90;;;;;;;4.98;85.89;101344.69;5981005;28;20039;-65
2022/05/05 03:15:12;;;;;;;10.87;4.93;;;;;;;4.99;85.93;101336.72;5981383;28;20479;-67
2022/05/05 03:18:07;;;;;;;9.43;4.73;;;;;;;5.09;85.76;101342.25;5990317;28;20043;-67
2022/05/05 03:21:03;;;;;;;7.90;3.80;;;;;;;5.01;86.08;101341.88;5987275;28;20046;-65
2022/05/05 03:23:58;;;;;;;12.80;4.20;;;;;;;5.10;85.63;101333.44;5981905;28;20097;-66
2022/05/05 03:26:54;;;;;;;7.90;4.40;;;;;;;5.18;85.58;101331.16;5982992;28;20291;-68
2022/05/05 03:29:49;;;;;;;13.00;4.43;;;;;;;4.95;85.39;101337.00;5979083;28;20345;-67
2022/05/05 03:32:44;;;;;;;11.23;4.50;;;;;;;5.01;84.88;101331.38;5981603;28;20301;-65
2022/05/05 03:35:39;;;;;;;10.20;5.17;;;;;;;4.98;86.17;101339.44;5967724;28;20089;-65
2022/05/05 03:38:35;;;;;;;14.10;4.53;;;;;;;4.96;85.79;101336.06;5981283;28;20039;-67
2022/05/05 03:41:32;;;;;;;11.52;4.82;;;;;;;4.74;85.93;101347.91;5985526;28;20059;-65
2022/05/05 03:44:27;;;;;;;10.40;4.68;;;;;;;4.60;86.63;101340.00;5980409;28;20046;-67
2022/05/05 03:47:22;;;;;;;11.50;4.00;;;;;;;4.49;86.21;101352.09;5981517;28;20039;-67
2022/05/05 03:50:17;;;;;;;8.40;4.23;;;;;;;4.94;87.32;101354.56;5980076;28;20038;-66
2022/05/05 03:53:13;;;;;;;13.07;4.90;;;;;;;5.06;85.77;101356.44;5975353;28;20046;-65
2022/05/05 03:56:08;;;;;;;14.20;4.77;;;;;;;5.00;85.19;101355.97;5980237;28;20039;-65
2022/05/05 03:59:04;;;;;;;14.35;4.00;;;;;;;4.94;85.22;101353.72;5983530;28;20383;-66
2022/05/05 04:01:59;;;;;;;7.75;4.57;;;;;;;4.79;84.98;101351.09;5979333;28;20043;-65
2022/05/05 04:04:54;;;;;;;9.47;4.07;;;;;;;4.67;85.38;101349.19;5982615;28;20094;-67
2022/05/05 04:07:50;;;;;;;10.20;5.20;;;;;;;4.73;86.03;101351.44;5969389;28;20043;-67
2022/05/05 04:10:45;;;;;;;10.00;4.93;;;;;;;4.67;85.87;101359.69;5998980;28;20031;-65
2022/05/05 04:13:40;;;;;;;9.37;4.20;;;;;;;4.97;86.04;101349.13;5980798;28;20043;-67
2022/05/05 04:16:36;;;;;;;12.70;4.50;;;;;;;4.66;86.11;101349.28;5980774;28;20043;-66
2022/05/05 04:19:31;;;;;;;9.27;4.70;;;;;;;4.82;86.07;101361.41;5980242;28;20110;-66
2022/05/05 04:22:26;;;;;;;9.97;4.47;;;;;;;4.71;86.71;101357.75;5987539;28;20035;-66
2022/05/05 04:25:22;;;;;;;8.80;4.40;;;;;;;4.68;86.10;101366.66;5969011;28;20035;-64
2022/05/05 04:28:18;;;;;;;8.30;5.03;;;;;;;4.76;86.49;101359.16;5986975;28;20082;-66
2022/05/05 04:31:14;;;;;;;11.00;4.60;;;;;;;4.85;86.66;101365.63;5981729;28;20027;-66
2022/05/05 04:34:09;;;;;;;11.35;4.00;;;;;;;5.22;85.89;101364.19;5989497;28;20542;-67
2022/05/05 04:37:05;;;;;;;8.27;4.53;;;;;;;5.61;84.15;101361.69;5978060;28;20043;-67
2022/05/05 04:40:00;;;;;;;9.35;4.35;;;;;;;5.72;83.04;101359.22;5983235;28;20035;-68
2022/05/05 04:42:56;;;;;;;10.77;4.70;;;;;;;5.98;81.96;101371.53;5969821;28;20038;-66
2022/05/05 04:45:52;;;;;;;7.57;3.58;;;;;;;6.39;81.10;101373.19;5978695;28;20035;-65
2022/05/05 04:48:50;;;;;;;10.13;4.45;;;;;;;6.62;80.07;101364.59;5984513;28;20478;-68
2022/05/05 04:51:45;;;;;;;11.82;3.90;;;;;;;7.30;78.34;101359.78;5980144;28;20039;-67
2022/05/05 04:54:41;;;;;;;10.33;4.10;;;;;;;7.42;76.55;101368.63;5981436;28;20126;-65
2022/05/05 04:57:38;;;;;;;8.70;4.25;;;;;;;7.36;75.35;101369.06;5980578;28;20055;-68
2022/05/05 05:00:35;;;;;;;10.75;4.20;;;;;;;7.99;74.28;101376.75;5978038;28;20094;-66
2022/05/05 05:03:35;;;;;;;9.43;3.95;;;;;;;8.26;73.37;101380.00;5979037;28;20038;-65
2022/05/05 05:06:30;;;;;;;6.13;3.83;;;;;;;8.55;71.22;101377.81;5983358;28;20043;-67
2022/05/05 05:09:26;;;;;;;8.30;3.83;;;;;;;8.87;70.73;101384.13;5984197;28;20399;-67
2022/05/05 05:12:21;;;;;;;8.77;3.73;;;;;;;9.09;69.39;101386.78;5983327;28;20274;-67
2022/05/05 05:15:17;;;;;;;8.43;3.50;;;;;;;9.22;68.88;101379.56;5980196;28;20047;-65
2022/05/05 05:18:12;;;;;;;7.05;4.55;;;;;;;8.63;69.99;101386.84;5984678;28;20045;-67
2022/05/05 05:21:07;;;;;;;7.72;3.90;;;;;;;8.73;70.79;101392.25;5992245;28;20117;-66
2022/05/05 05:24:03;;;;;;;9.97;4.10;;;;;;;8.70;69.29;101392.50;5979065;28;20075;-68
2022/05/05 05:26:59;;;;;;;7.25;3.95;;;;;;;8.53;70.47;101399.09;5982227;28;20035;-66
2022/05/05 05:29:54;;;;;;;8.43;4.30;;;;;;;8.56;70.93;101398.00;5983175;28;20035;-68
2022/05/05 05:32:49;;;;;;;11.97;5.10;;;;;;;8.38;70.91;101405.50;5976010;28;20035;-67
2022/05/05 05:35:44;;;;;;;12.67;3.93;;;;;;;8.33;71.07;101397.09;5976171;28;20274;-67
2022/05/05 05:38:40;;;;;;;10.57;4.10;;;;;;;8.86;70.40;101408.88;5983525;28;20031;-67
2022/05/05 05:41:35;;;;;;;8.05;4.18;;;;;;;9.16;69.11;101400.38;5983068;28;20282;-68
2022/05/05 05:44:31;;;;;;;7.90;4.13;;;;;;;9.65;67.03;101402.63;5979630;28;20051;-66
2022/05/05 05:47:26;;;;;;;9.73;4.23;;;;;;;10.54;64.04;101404.03;5980812;28;20043;-67
2022/05/05 05:50:22;;;;;;;8.50;4.00;;;;;;;11.12;61.11;101399.03;5982314;28;20039;-68
2022/05/05 05:53:17;;;;;;;7.65;3.95;;;;;;;11.07;61.35;101403.91;5983231;28;20426;-67
2022/05/05 05:56:12;;;;;;;8.30;3.97;;;;;;;11.32;60.66;101416.75;5982777;28;20054;-66
2022/05/05 05:59:07;;;;;;;8.20;3.90;;;;;;;11.92;58.60;101416.69;5982186;28;20166;-66
2022/05/05 06:05:17;;;;;;;8.52;3.85;;;;;;;11.79;58.92;101420.56;5983055;28;20028;-68
2022/05/05 06:08:13;;;;;;;8.73;3.67;;;;;;;12.11;57.68;101417.69;5982871;28;20372;-67
2022/05/05 06:11:11;;;;;;;10.03;4.33;;;;;;;12.55;56.33;101419.78;5981819;28;20126;-65
2022/05/05 06:14:06;;;;;;;9.68;4.18;;;;;;;12.19;57.20;101420.47;5980315;29;20122;-67
2022/05/05 06:17:01;;;;;;;8.63;3.97;;;;;;;12.80;55.60;101431.66;5981315;28;20536;-66
2022/05/05 06:19:56;;;;;;;9.27;4.47;;;;;;;12.43;56.38;101437.72;5982777;28;20039;-66
2022/05/05 06:22:52;;;;;;;8.00;4.20;;;;;;;12.38;56.32;101439.13;5981762;28;20032;-67
2022/05/05 06:25:47;;;;;;;10.88;3.85;;;;;;;11.75;57.71;101430.63;5982051;28;20035;-66
2022/05/05 06:28:43;;;;;;;7.23;4.07;;;;;;;11.81;58.24;101440.72;5981876;28;20035;-67
2022/05/05 06:31:38;;;;;;;9.27;4.72;;;;;;;11.48;59.77;101450.78;5981507;28;20031;-66
2022/05/05 06:34:34;;;;;;;9.77;4.07;;;;;;;11.84;59.26;101444.91;5982408;28;20046;-66
2022/05/05 06:37:29;;;;;;;14.40;4.23;;;;;;;12.42;57.89;101440.50;5982014;28;20031;-67
2022/05/05 06:40:24;;;;;;;7.27;3.97;;;;;;;12.74;56.39;101441.06;5979749;28;20282;-67
2022/05/05 06:43:20;;;;;;;10.43;4.85;;;;;;;12.21;56.57;101442.44;5979762;28;20054;-66
2022/05/05 06:46:15;;;;;;;8.30;4.40;;;;;;;12.60;56.22;101457.47;5981493;28;20047;-67
2022/05/05 06:49:10;;;;;;;10.17;4.07;;;;;;;12.38;57.04;101449.75;5982085;28;20051;-65
2022/05/05 06:52:06;;;;;;;8.23;3.90;;;;;;;12.99;55.37;101444.94;5981238;28;20466;-66
2022/05/05 06:55:03;;;;;;;8.13;3.50;;;;;;;12.90;54.96;101443.97;5979812;28;20038;-65
2022/05/05 06:57:59;;;;;;;10.25;3.92;;;;;;;12.25;57.33;101458.00;5981351;28;20089;-65
2022/05/05 07:07:22;;;;;;;6.53;3.67;;;;;;;13.01;54.89;101453.63;5981244;29;20027;-66
2022/05/05 07:13:33;;;;;;;11.13;3.95;;;;;;;12.55;55.41;101459.69;5981336;29;20091;-67
2022/05/05 07:16:28;;;;;;;9.45;3.53;;;;;;;12.48;55.75;101461.22;5976481;28;20110;-67
2022/05/05 07:19:24;;;;;;;10.30;3.67;;;;;;;12.78;54.98;101458.41;5979319;28;20039;-68
2022/05/05 07:22:19;;;;;;;9.37;3.40;;;;;;;12.58;54.30;101464.75;5980125;28;20201;-65
2022/05/05 07:25:14;;;;;;;8.07;3.53;;;;;;;12.97;52.82;101458.38;5980422;28;20031;-65
2022/05/05 07:28:10;;;;;;;11.80;3.67;;;;;;;12.95;54.03;101460.34;5980777;28;20043;-67
2022/05/05 07:31:05;;;;;;;8.50;3.90;;;;;;;13.31;54.06;101469.41;5980468;28;20537;-67
2022/05/05 07:34:01;;;;;;;9.25;4.07;;;;;;;13.08;53.17;101466.25;5980882;28;20624;-67
2022/05/05 07:36:56;;;;;;;7.67;3.30;;;;;;;13.31;52.55;101469.41;5981832;28;20046;-66
2022/05/05 07:39:51;;;;;;;10.33;3.43;;;;;;;13.56;52.73;101473.25;5980891;28;20039;-65
2022/05/05 07:42:47;;;;;;;9.00;3.27;;;;;;;13.58;49.71;101468.63;5979862;28;20282;-67
2022/05/05 07:45:42;;;;;;;8.17;3.20;;;;;;;13.57;51.29;101477.59;5980177;28;20035;-65
2022/05/05 07:48:37;;;;;;;9.93;3.50;;;;;;;13.54;51.03;101477.88;5980338;28;20030;-67
2022/05/05 07:51:33;;;;;;;9.80;3.40;;;;;;;13.65;51.05;101480.34;5973414;28;20771;-65
2022/05/05 07:54:35;;;;;;;8.82;3.13;;;;;;;13.72;52.28;101479.59;5980330;28;20090;-67
2022/05/05 07:57:30;;;;;;;6.03;3.30;;;;;;;13.73;49.24;101473.31;5981442;28;20035;-66
2022/05/05 08:00:25;;;;;;;11.17;3.50;;;;;;;14.04;50.45;101476.50;5979778;28;20078;-67
2022/05/05 08:03:20;;;;;;;10.07;3.70;;;;;;;13.80;50.41;101478.91;5980200;28;20126;-66
2022/05/05 08:06:16;;;;;;;6.50;4.27;;;;;;;14.32;50.18;101479.19;5979961;28;20431;-65
2022/05/05 08:09:11;;;;;;;8.60;3.13;;;;;;;14.39;48.61;101480.22;5980036;28;20278;-66
2022/05/05 08:12:07;;;;;;;10.20;3.50;;;;;;;14.34;48.03;101487.84;5979276;28;20501;-66
2022/05/05 08:15:04;;;;;;;5.95;3.20;;;;;;;14.26;47.27;101492.09;5978118;28;20051;-66
2022/05/05 08:17:59;;;;;;;8.27;3.60;;;;;;;14.40;47.99;101492.59;5979778;28;20439;-66
2022/05/05 08:20:54;;;;;;;6.90;4.13;;;;;;;14.42;49.84;101501.28;5979620;28;20092;-66
2022/05/05 08:28:27;;;;;;;8.00;3.30;;;;;;;14.49;47.69;101494.34;5979815;28;20055;-68
2022/05/05 08:30:19;;;;;;;5.43;2.92;;;;;;;14.62;44.84;101492.16;5978461;29;20047;-68
2022/05/05 08:33:14;;;;;;;10.30;2.80;;;;;;;14.39;46.07;101494.41;5979836;28;20043;-66
2022/05/05 08:36:09;;;;;;;7.45;2.92;;;;;;;14.58;45.29;101496.09;5979307;28;20063;-67
2022/05/05 08:39:05;;;;;;;9.50;2.90;;;;;;;14.61;43.61;101495.81;5978702;28;20035;-66
2022/05/05 08:42:03;;;;;;;8.23;2.70;;;;;;;14.93;44.74;101505.91;5979079;28;20498;-67
2022/05/05 08:44:59;;;;;;;9.02;3.00;;;;;;;14.79;44.47;101493.94;5979350;28;20364;-65
2022/05/05 08:47:55;;;;;;;8.52;2.42;;;;;;;15.01;43.28;101504.16;5977351;28;20077;-67
2022/05/05 08:50:59;;;;;;;7.65;3.15;;;;;;;15.04;45.00;101503.84;5977393;29;20035;-67
2022/05/05 08:53:55;;;;;;;8.45;2.97;;;;;;;15.07;45.08;101502.69;5979096;28;20027;-67
2022/05/05 08:56:51;;;;;;;10.82;3.20;;;;;;;15.39;45.63;101502.91;5978085;28;20043;-66
2022/05/05 08:59:47;;;;;;;5.97;3.30;;;;;;;15.64;44.44;101501.25;5979077;28;20063;-66
2022/05/05 09:02:43;;;;;;;7.50;2.83;;;;;;;15.77;43.19;101490.94;5980060;28;20043;-67
2022/05/05 09:05:44;;;;;;;7.45;3.20;;;;;;;16.03;43.84;101499.75;5978634;28;20060;-67
2022/05/05 09:08:39;;;;;;;6.03;2.90;;;;;;;15.67;43.27;101508.97;5979454;28;20031;-67
2022/05/05 09:11:35;;;;;;;9.60;3.20;;;;;;;15.74;43.60;101516.16;5978342;28;20035;-68
2022/05/05 09:14:44;;;;;;;9.40;2.90;;;;;;;15.51;44.08;101506.19;5979019;28;20165;-65
2022/05/05 09:17:39;;;;;;;6.13;2.63;;;;;;;15.67;44.08;101516.97;5979154;28;20394;-65
2022/05/05 09:20:35;;;;;;;3.13;1.83;;;;;;;15.74;42.93;101510.81;5978406;28;20031;-67
2022/05/05 09:23:36;;;;;;;7.18;2.17;;;;;;;15.88;41.05;101514.72;5979242;28;20023;-66
2022/05/05 09:26:31;;;;;;;11.00;2.50;;;;;;;15.66;42.14;101509.94;5978945;28;20047;-67
2022/05/05 09:29:26;;;;;;;8.57;3.03;;;;;;;15.60;40.86;101515.94;5979056;28;20031;-67
2022/05/05 09:32:27;;;;;;;7.17;2.20;;;;;;;15.88;41.76;101520.09;5978409;28;20044;-65
2022/05/05 09:35:22;;;;;;;5.10;1.70;;;;;;;15.96;39.90;101520.13;5978910;28;20072;-66
2022/05/05 09:38:17;;;;;;;5.67;1.90;;;;;;;16.16;40.47;101515.34;5979154;28;20071;-66
2022/05/05 09:41:13;;;;;;;6.27;1.90;;;;;;;16.09;38.22;101518.66;5976966;28;20039;-65
2022/05/05 09:44:12;;;;;;;7.68;2.10;;;;;;;16.30;40.84;101520.94;5980611;28;20046;-66
2022/05/05 09:47:14;;;;;;;5.68;2.60;;;;;;;16.49;40.71;101517.97;5980723;28;20454;-65
2022/05/05 09:50:10;;;;;;;8.50;2.35;;;;;;;16.25;40.87;101519.75;5978345;28;20399;-67
2022/05/05 09:59:46;;;;;;;6.32;1.92;;;;;;;16.86;40.16;101511.31;5980774;28;20164;-67
2022/05/05 10:05:56;;;;;;;6.15;1.90;;;;;;;17.14;38.97;101515.34;5982893;28;20009;-66
2022/05/05 10:08:53;;;;;;;4.18;1.85;;;;;;;17.54;36.49;101527.88;5981340;29;20062;-67
2022/05/05 10:11:49;;;;;;;7.22;2.22;;;;;;;17.53;38.36;101518.13;5982181;28;20058;-67
2022/05/05 10:14:44;;;;;;;8.00;2.20;;;;;;;17.39;39.25;101525.03;5987718;28;20391;-66
2022/05/05 10:17:41;;;;;;;5.00;2.67;;;;;;;17.53;39.98;101524.34;5978425;28;20471;-67
2022/05/05 10:20:36;;;;;;;4.47;2.38;;;;;;;17.40;39.54;101521.31;5980785;28;20038;-67
2022/05/05 10:23:47;;;;;;;7.55;2.17;;;;;;;17.44;38.51;101516.47;5981094;28;20035;-66
2022/05/05 10:26:50;;;;;;;7.65;2.17;;;;;;;17.38;38.53;101512.63;5982591;28;20406;-67
2022/05/05 10:29:46;;;;;;;6.72;2.17;;;;;;;17.47;37.25;101519.66;5982255;28;20607;-66
2022/05/05 10:32:42;;;;;;;6.18;1.98;;;;;;;17.77;37.72;101518.91;5981609;28;20049;-67
2022/05/05 10:35:47;;;;;;;4.43;1.98;;;;;;;17.31;38.01;101521.53;5981731;28;20085;-67
2022/05/05 10:38:42;;;;;;;5.00;2.10;;;;;;;17.65;39.44;101517.63;5982171;28;20059;-67
2022/05/05 10:41:39;;;;;;;9.98;2.10;;;;;;;17.77;37.46;101518.91;5986769;28;20513;-66
2022/05/05 10:44:34;;;;;;;5.65;2.40;;;;;;;18.03;38.01;101521.34;5982097;28;20418;-67
2022/05/05 10:47:55;;;;;;;4.20;1.60;;;;;;;17.96;37.76;101522.22;5980800;28;20027;-67
2022/05/05 10:51:03;;;;;;;7.15;2.20;;;;;;;17.95;37.57;101516.00;5979884;28;20031;-67
2022/05/05 10:54:24;;;;;;;7.53;2.40;;;;;;;18.28;37.24;101514.00;5984147;28;20534;-67
2022/05/05 10:57:25;;;;;;;5.43;2.33;;;;;;;18.44;38.20;101513.91;5981776;28;20473;-68
2022/05/05 11:00:22;;;;;;;5.45;2.03;;;;;;;18.88;37.12;101509.59;5980766;28;20031;-66
2022/05/05 11:03:18;;;;;;;4.78;1.83;;;;;;;18.88;35.85;101520.34;5980799;28;20035;-67
2022/05/05 11:06:16;;;;;;;4.35;1.52;;;;;;;18.85;36.45;101499.19;5981538;28;20027;-68
2022/05/05 11:09:31;;;;;;;4.28;1.42;;;;;;;19.13;36.14;101512.91;5980618;28;20047;-66
2022/05/05 11:12:32;;;;;;;6.40;1.75;;;;;;;18.67;35.19;101508.59;5980828;28;20039;-66
2022/05/05 11:21:32;;;;;;;5.30;1.50;;;;;;;19.00;34.75;101510.81;5981634;29;20031;-67
2022/05/05 11:22:25;;;;;;;4.25;1.42;;;;;;;18.98;34.10;101522.75;5980408;29;20070;-67
2022/05/05 11:25:20;;;;;;;2.42;1.30;;;;;;;19.00;35.17;101509.97;5982083;28;20067;-67
2022/05/05 11:28:17;;;;;;;3.72;1.98;;;;;;;18.75;35.21;101519.28;5980886;28;20109;-67
2022/05/05 11:31:24;;;;;;;4.50;1.77;;;;;;;18.76;35.29;101521.75;5980401;28;20046;-68
2022/05/05 11:34:21;;;;;;;7.57;1.90;;;;;;;18.83;34.24;101506.56;5980799;28;20562;-66
2022/05/05 11:37:17;;;;;;;6.05;1.95;;;;;;;19.13;34.22;101507.53;5980803;28;20042;-68
2022/05/05 11:40:13;;;;;;;4.07;1.60;;;;;;;19.15;34.71;101516.25;5981230;28;20043;-66
2022/05/05 11:46:24;;;;;;;2.65;1.45;;;;;;;19.66;34.15;101509.19;5980509;28;20039;-67
2022/05/05 11:49:20;;;;;;;3.67;1.60;;;;;;;19.86;34.09;101504.91;5978850;28;20035;-67
2022/05/05 11:52:19;;;;;;;5.70;1.80;;;;;;;19.67;32.38;101508.16;5985971;28;20079;-67
2022/05/05 11:55:19;;;;;;;5.50;1.63;;;;;;;19.22;33.27;101513.63;5986065;28;20085;-66
2022/05/05 11:58:16;;;;;;;;;;;;;;;19.83;31.74;101507.97;5981638;28;20114;-67
2022/05/05 12:04:25;;;;;;;4.32;1.70;;;;;;;20.32;33.11;101504.66;5987028;28;20059;-68
2022/05/05 12:07:23;;;;;;;5.80;1.40;;;;;;;20.04;34.25;101507.19;5989441;28;20031;-67
2022/05/05 12:10:19;;;;;;;4.05;1.40;;;;;;;19.99;33.53;101507.78;5996395;28;20704;-67
2022/05/05 12:13:15;;;;;;;3.10;1.42;;;;;;;19.96;32.41;101497.38;5988056;28;20039;-68
2022/05/05 12:16:13;;;;;;;2.63;1.10;;;;;;;20.14;32.88;101502.34;5980714;28;20105;-65
2022/05/05 12:19:12;;;;;;;3.83;1.20;;;;;;;19.82;33.65;101508.97;5980682;28;20470;-66
2022/05/05 12:22:08;;;;;;;2.53;1.23;;;;;;;19.96;32.52;101500.06;5992788;28;20418;-66
2022/05/05 12:25:16;;;;;;;3.43;1.40;;;;;;;20.04;33.14;101510.72;5981696;28;20035;-67
2022/05/05 12:28:11;;;;;;;4.07;1.25;;;;;;;20.06;32.92;101507.84;5985365;28;20632;-68
2022/05/05 12:31:20;;;;;;;4.97;1.40;;;;;;;20.39;32.13;101505.56;5984895;28;20031;-68
2022/05/05 12:34:25;;;;;;;3.17;1.00;;;;;;;20.51;33.35;101494.13;5985585;28;20043;-68
2022/05/05 12:37:20;;;;;;;4.38;1.15;;;;;;;20.53;33.19;101496.59;5996737;28;20106;-66
2022/05/05 12:40:15;;;;;;;1.67;1.00;;;;;;;20.44;32.96;101492.34;5979572;28;20422;-66
2022/05/05 12:43:13;;;;;;;3.40;1.20;;;;;;;20.20;31.96;101494.34;5979932;28;20274;-67
2022/05/05 12:46:08;;;;;;;2.75;0.85;;;;;;;20.47;32.35;101494.66;5983410;28;20291;-66
2022/05/05 12:49:04;;;;;;;2.93;1.10;;;;;;;20.86;33.11;101497.75;5982377;28;20035;-65
2022/05/05 12:52:00;;;;;;;3.30;1.27;;;;;;;20.77;32.68;101490.81;5982052;28;20117;-65
2022/05/05 12:59:36;;;;;;;3.58;1.02;;;;;;;20.75;32.54;101484.81;5983366;28;20026;-66
2022/05/05 13:01:31;;;;;;;4.68;1.65;;;;;;;20.53;31.17;101494.75;5986334;28;20075;-66
2022/05/05 13:04:27;;;;;;;2.72;1.00;;;;;;;20.67;32.41;101493.03;5979308;28;20070;-67
2022/05/05 13:07:24;;;;;;;3.87;1.20;;;;;;;20.82;30.91;101488.38;5979109;28;20035;-66
2022/05/05 13:10:20;;;;;;;2.72;1.00;;;;;;;20.82;32.22;101488.38;5978409;28;20523;-66
2022/05/05 13:13:15;;;;;;;3.38;1.48;;;;;;;21.00;31.45;101491.47;5979188;28;20040;-66
2022/05/05 13:16:11;;;;;;;2.90;1.00;;;;;;;21.11;31.23;101485.56;5984594;28;20059;-65
2022/05/05 13:19:07;;;;;;;2.72;1.00;;;;;;;21.07;31.20;101484.28;5971923;28;20322;-66
2022/05/05 13:22:03;;;;;;;2.80;0.82;;;;;;;21.09;31.20;101476.81;5982551;28;20368;-66
2022/05/05 13:24:58;;;;;;;3.10;1.20;;;;;;;21.13;31.93;101472.72;5978176;28;20027;-66
2022/05/05 13:27:54;;;;;;;3.33;1.30;;;;;;;21.28;30.42;101478.81;5984555;28;20043;-67
2022/05/05 13:30:49;;;;;;;2.83;1.17;;;;;;;21.63;29.61;101477.00;5982749;28;20019;-67
2022/05/05 13:33:44;;;;;;;1.93;1.10;;;;;;;21.54;29.92;101474.63;5985739;28;20039;-66
2022/05/05 13:36:40;;;;;;;2.90;1.37;;;;;;;21.24;29.67;101474.03;5984498;28;20160;-65
2022/05/05 13:39:36;;;;;;;4.70;1.08;;;;;;;21.39;29.92;101473.94;5983406;28;20270;-67
2022/05/05 13:42:31;;;;;;;2.70;1.10;;;;;;;21.67;30.15;101469.31;5986140;28;20090;-66
2022/05/05 13:45:27;;;;;;;2.23;0.90;;;;;;;21.03;29.78;101472.19;5984113;28;20485;-65
2022/05/05 13:48:22;;;;;;;2.92;0.90;;;;;;;21.59;30.88;101461.38;5983414;28;20038;-66
2022/05/05 13:51:18;;;;;;;3.93;1.20;;;;;;;21.31;31.51;101469.50;5984527;28;20039;-67
2022/05/05 13:54:13;;;;;;;3.92;1.00;;;;;;;21.66;29.50;101473.06;5988888;28;20039;-66
2022/05/05 13:57:09;;;;;;;2.03;1.10;;;;;;;21.75;29.28;101477.22;5983071;28;20035;-66
2022/05/05 14:00:05;;;;;;;3.57;1.37;;;;;;;21.53;29.57;101472.94;5981719;28;20034;-66
2022/05/05 14:03:00;;;;;;;2.63;0.80;;;;;;;21.44;29.33;101457.97;5982939;28;20074;-67
2022/05/05 14:05:56;;;;;;;2.35;0.80;;;;;;;21.53;29.53;101478.34;5982826;28;20559;-67
2022/05/05 14:12:11;;;;;;;5.10;1.00;;;;;;;21.88;28.18;101466.50;5980759;28;20067;-67
2022/05/05 14:15:08;;;;;;;1.55;0.80;;;;;;;22.40;27.96;101472.09;5983046;28;20042;-67
2022/05/05 14:18:05;;;;;;;3.10;1.08;;;;;;;22.66;27.00;101471.34;5989867;28;20027;-67
2022/05/05 14:21:00;;;;;;;2.33;0.98;;;;;;;23.11;27.24;101481.34;5981715;28;20065;-66
2022/05/05 14:23:55;;;;;;;4.10;1.30;;;;;;;22.66;27.73;101484.03;5982308;28;20426;-66
2022/05/05 14:26:51;;;;;;;1.33;1.00;;;;;;;21.26;28.67;101475.50;5983116;28;20474;-67
2022/05/05 14:29:48;;;;;;;4.72;1.05;;;;;;;20.63;30.58;101478.25;5982403;28;20797;-66
2022/05/05 14:32:45;;;;;;;2.42;1.00;;;;;;;19.69;31.76;101481.06;5983854;28;20072;-66
2022/05/05 14:35:42;;;;;;;2.38;1.00;;;;;;;19.39;31.78;101490.97;5982263;28;20035;-66
2022/05/05 14:38:37;;;;;;;2.28;0.90;;;;;;;18.98;33.13;101488.66;5981458;28;20035;-66